Time;durP1;ratioP1;P1;durP2;ratioP2;P2;SDS_P1;SDS_P2;PMS_P1;PMS_P2;Temp;Humidity;BMP_temperature;BMP_pressure;BME280_temperature;BME280_humidity;BME280_pressure;Samples;Min_cycle;Max_cycle;Signal;HPM_P1;HPM_P2
2021/10/18 00:01:22;;;;;;;21.70;10.83;;;8.10;99.90;;;;;;5039170;28;20646;-66
2021/10/18 00:03:48;;;;;;;17.50;10.77;;;7.90;99.90;;;;;;5031484;28;20226;-66
2021/10/18 00:06:13;;;;;;;18.57;11.47;;;8.00;99.90;;;;;;5031103;28;20288;-66
2021/10/18 00:08:39;;;;;;;21.30;11.43;;;8.10;99.90;;;;;;5031337;28;20190;-66
2021/10/18 00:11:05;;;;;;;16.63;10.40;;;8.00;99.90;;;;;;5031777;28;20183;-66
2021/10/18 00:13:31;;;;;;;22.20;11.77;;;8.10;99.90;;;;;;5031909;28;20600;-67
2021/10/18 00:15:57;;;;;;;19.40;10.73;;;7.80;99.90;;;;;;5032717;28;20572;-67
2021/10/18 00:18:22;;;;;;;17.30;10.67;;;7.70;99.90;;;;;;5032973;28;20685;-67
2021/10/18 00:20:48;;;;;;;17.57;10.60;;;7.90;99.90;;;;;;5030868;28;20449;-67
2021/10/18 00:23:13;;;;;;;24.53;12.27;;;8.00;99.90;;;;;;5031362;28;20277;-67
2021/10/18 00:25:39;;;;;;;15.60;10.40;;;8.10;99.90;;;;;;5027149;28;20191;-67
2021/10/18 00:28:05;;;;;;;14.47;8.67;;;7.80;99.90;;;;;;5042453;28;20285;-68
2021/10/18 00:30:30;;;;;;;12.80;8.57;;;7.80;99.90;;;;;;5030762;28;20672;-67
2021/10/18 00:32:56;;;;;;;14.53;9.87;;;7.80;99.90;;;;;;5026695;28;20557;-68
2021/10/18 00:35:22;;;;;;;15.80;10.80;;;7.80;99.90;;;;;;5035451;28;20253;-66
2021/10/18 00:37:47;;;;;;;21.27;10.67;;;7.90;99.90;;;;;;5026568;28;20215;-67
2021/10/18 00:40:15;;;;;;;18.80;11.70;;;7.80;99.90;;;;;;5030318;28;20605;-66
2021/10/18 00:42:41;;;;;;;21.55;11.65;;;7.70;99.90;;;;;;5035001;28;20195;-66
2021/10/18 00:45:08;;;;;;;25.75;11.80;;;7.60;99.90;;;;;;5030271;28;20274;-66
2021/10/18 00:47:34;;;;;;;19.13;11.57;;;7.90;99.90;;;;;;5030895;28;20621;-67
2021/10/18 00:49:59;;;;;;;20.37;11.83;;;7.60;99.90;;;;;;5031041;28;20183;-66
2021/10/18 00:52:26;;;;;;;22.97;12.13;;;7.90;99.90;;;;;;5031387;28;20245;-66
2021/10/18 00:54:53;;;;;;;19.27;10.82;;;7.90;99.90;;;;;;5029698;28;20578;-67
2021/10/18 00:57:19;;;;;;;21.65;12.23;;;7.90;99.90;;;;;;5030796;28;20595;-67
2021/10/18 00:59:45;;;;;;;20.57;11.37;;;7.90;99.90;;;;;;5030994;28;20187;-66
2021/10/18 01:02:12;;;;;;;21.10;12.73;;;8.00;99.90;;;;;;5031210;28;20187;-67
2021/10/18 01:04:38;;;;;;;19.02;12.60;;;8.00;99.90;;;;;;5030835;28;20183;-66
2021/10/18 01:07:03;;;;;;;20.10;12.47;;;7.80;99.90;;;;;;5028151;28;20186;-67
2021/10/18 01:09:29;;;;;;;21.70;12.30;;;7.80;99.90;;;;;;5030716;28;20452;-67
2021/10/18 01:11:54;;;;;;;25.47;13.90;;;8.00;99.90;;;;;;5034750;28;20209;-68
2021/10/18 01:14:20;;;;;;;24.13;13.50;;;8.20;99.90;;;;;;5031074;28;20783;-68
2021/10/18 01:16:46;;;;;;;27.67;14.07;;;7.90;99.90;;;;;;5030583;28;20312;-69
2021/10/18 01:19:13;;;;;;;25.03;13.23;;;7.90;99.90;;;;;;5030066;28;20187;-68
2021/10/18 01:21:39;;;;;;;27.48;13.50;;;7.90;99.90;;;;;;5030516;28;20570;-69
2021/10/18 01:24:05;;;;;;;24.17;13.55;;;7.90;99.90;;;;;;5030098;28;20651;-66
2021/10/18 01:26:30;;;;;;;30.67;14.30;;;7.90;99.90;;;;;;5030063;28;20187;-67
2021/10/18 01:28:56;;;;;;;27.67;14.67;;;7.80;99.90;;;;;;5030067;28;20436;-67
2021/10/18 01:31:22;;;;;;;22.63;12.93;;;8.00;99.90;;;;;;5029967;28;20190;-67
2021/10/18 01:33:48;;;;;;;29.90;16.37;;;7.80;99.90;;;;;;5030051;28;20205;-66
2021/10/18 01:36:13;;;;;;;33.03;16.60;;;8.20;99.90;;;;;;5029450;28;20697;-67
2021/10/18 01:38:39;;;;;;;30.90;16.43;;;8.00;99.90;;;;;;5028984;28;20223;-66
2021/10/18 01:41:04;;;;;;;30.77;16.03;;;8.10;99.90;;;;;;5029507;28;20588;-66
2021/10/18 01:43:30;;;;;;;31.50;15.17;;;8.00;99.90;;;;;;5030048;28;20234;-66
2021/10/18 01:45:55;;;;;;;35.63;15.77;;;8.00;99.90;;;;;;5035554;28;20252;-67
2021/10/18 01:48:21;;;;;;;25.67;16.23;;;8.00;99.90;;;;;;5029639;28;20214;-67
2021/10/18 01:50:47;;;;;;;25.53;14.60;;;8.10;99.90;;;;;;5029389;28;20218;-69
2021/10/18 01:53:12;;;;;;;33.03;14.90;;;8.00;99.90;;;;;;5029303;28;20952;-65
2021/10/18 01:55:38;;;;;;;35.00;17.00;;;7.80;99.90;;;;;;5030512;28;20738;-67
2021/10/18 01:58:04;;;;;;;29.13;15.80;;;7.80;99.90;;;;;;5029665;28;20666;-67
2021/10/18 02:00:29;;;;;;;31.73;15.90;;;8.00;99.90;;;;;;5029353;28;20685;-66
2021/10/18 02:02:55;;;;;;;33.27;16.20;;;8.10;99.90;;;;;;5029466;28;20492;-68
2021/10/18 02:05:21;;;;;;;34.90;16.17;;;7.80;99.90;;;;;;5029335;28;20425;-69
2021/10/18 02:07:46;;;;;;;28.80;15.60;;;8.10;99.90;;;;;;5029359;28;20668;-67
2021/10/18 02:10:12;;;;;;;34.43;19.17;;;8.00;99.90;;;;;;5027622;28;20198;-68
2021/10/18 02:12:38;;;;;;;27.70;15.48;;;8.10;99.90;;;;;;5023639;28;20285;-68
2021/10/18 02:15:06;;;;;;;31.73;15.18;;;8.00;99.90;;;;;;5035435;28;20181;-67
2021/10/18 02:17:31;;;;;;;32.03;16.67;;;7.90;99.90;;;;;;5025069;28;20522;-68
2021/10/18 02:19:57;;;;;;;24.10;15.57;;;7.90;99.90;;;;;;5029163;28;20702;-70
2021/10/18 02:22:22;;;;;;;32.13;15.57;;;7.90;99.90;;;;;;5028096;28;20195;-67
2021/10/18 02:24:48;;;;;;;26.57;14.50;;;8.10;99.90;;;;;;5030454;28;20557;-67
2021/10/18 02:27:13;;;;;;;27.07;15.50;;;7.90;99.90;;;;;;5033274;28;20237;-69
2021/10/18 02:29:39;;;;;;;26.73;14.53;;;8.00;99.90;;;;;;5029200;28;20198;-67
2021/10/18 02:32:05;;;;;;;25.60;15.40;;;8.00;99.90;;;;;;5023967;28;20206;-69
2021/10/18 02:34:30;;;;;;;28.37;14.23;;;8.10;99.90;;;;;;5029420;28;20499;-68
2021/10/18 02:36:56;;;;;;;23.90;13.20;;;7.80;99.90;;;;;;5029424;28;20469;-67
2021/10/18 02:39:21;;;;;;;25.80;13.33;;;8.00;99.90;;;;;;5028068;28;20527;-67
2021/10/18 02:41:47;;;;;;;25.47;14.67;;;8.10;99.90;;;;;;5028606;28;20202;-68
2021/10/18 02:44:12;;;;;;;29.00;14.10;;;8.00;99.90;;;;;;5029203;28;20666;-68
2021/10/18 02:46:38;;;;;;;25.97;12.70;;;8.00;99.90;;;;;;5032980;28;20186;-69
2021/10/18 02:49:03;;;;;;;32.03;14.23;;;8.00;99.90;;;;;;5029243;28;20203;-68
2021/10/18 02:51:29;;;;;;;27.10;13.07;;;8.10;99.90;;;;;;5025905;28;20180;-69
2021/10/18 02:53:54;;;;;;;24.87;13.43;;;8.20;99.90;;;;;;5031906;28;20191;-69
2021/10/18 02:56:20;;;;;;;26.97;14.30;;;7.90;99.90;;;;;;5029680;28;20254;-67
2021/10/18 02:58:45;;;;;;;22.27;13.23;;;8.20;99.90;;;;;;5024954;28;20191;-68
2021/10/18 03:01:11;;;;;;;22.93;13.97;;;7.90;99.90;;;;;;5029126;28;20557;-69
2021/10/18 03:03:36;;;;;;;27.07;13.53;;;8.20;99.90;;;;;;5027845;28;20192;-69
2021/10/18 03:06:02;;;;;;;25.37;13.93;;;8.10;99.90;;;;;;5040951;28;20230;-69
2021/10/18 03:08:28;;;;;;;23.73;13.95;;;8.00;99.90;;;;;;5032848;28;20638;-69
2021/10/18 03:10:54;;;;;;;26.73;14.83;;;8.10;99.90;;;;;;5031337;28;20229;-69
2021/10/18 03:13:20;;;;;;;29.90;13.53;;;7.90;99.90;;;;;;5028589;28;20445;-70
2021/10/18 03:15:45;;;;;;;24.83;14.00;;;8.00;99.90;;;;;;5035649;28;20223;-69
2021/10/18 03:18:11;;;;;;;26.20;14.23;;;8.20;99.90;;;;;;5028875;28;20184;-70
2021/10/18 03:20:36;;;;;;;24.60;14.80;;;8.20;99.90;;;;;;5032938;28;20183;-70
2021/10/18 03:23:02;;;;;;;22.97;12.60;;;8.20;99.90;;;;;;5031454;28;20643;-71
2021/10/18 03:25:34;;;;;;;24.00;13.23;;;8.00;99.90;;;;;;5036147;28;20292;-69
2021/10/18 03:28:00;;;;;;;21.02;12.48;;;8.20;99.90;;;;;;5032249;28;20429;-69
2021/10/18 03:30:26;;;;;;;22.88;13.45;;;8.10;99.90;;;;;;5029301;28;20179;-69
2021/10/18 03:32:51;;;;;;;27.33;13.63;;;8.10;99.90;;;;;;5029822;28;20256;-69
2021/10/18 03:35:17;;;;;;;24.27;15.57;;;7.90;99.90;;;;;;5023128;28;20187;-69
2021/10/18 03:37:42;;;;;;;28.37;13.87;;;8.10;99.90;;;;;;5037077;28;20215;-69
2021/10/18 03:40:11;;;;;;;22.63;13.13;;;8.20;99.90;;;;;;5031954;28;20237;-69
2021/10/18 03:42:38;;;;;;;21.67;11.65;;;8.00;99.90;;;;;;5032506;28;20668;-67
2021/10/18 03:45:05;;;;;;;26.10;13.98;;;8.20;99.90;;;;;;5033637;28;20190;-69
2021/10/18 03:47:31;;;;;;;24.75;14.88;;;8.20;99.90;;;;;;5031498;28;20198;-69
2021/10/18 03:49:56;;;;;;;27.57;14.30;;;8.00;99.90;;;;;;5032100;28;20191;-69
2021/10/18 03:52:22;;;;;;;22.10;13.00;;;8.00;99.90;;;;;;5031862;28;20195;-69
2021/10/18 03:54:48;;;;;;;25.50;13.77;;;8.10;99.90;;;;;;5031100;28;20187;-70
2021/10/18 03:57:13;;;;;;;23.67;12.70;;;7.90;99.90;;;;;;5030477;28;20507;-69
2021/10/18 03:59:40;;;;;;;25.63;13.53;;;8.00;99.90;;;;;;5031614;28;20277;-69
2021/10/18 04:02:06;;;;;;;26.95;14.02;;;8.00;99.90;;;;;;5032783;28;20491;-69
2021/10/18 04:04:32;;;;;;;23.33;13.02;;;8.20;99.90;;;;;;5031699;28;20222;-69
2021/10/18 04:06:58;;;;;;;30.15;15.45;;;8.00;99.90;;;;;;5027863;28;20696;-69
2021/10/18 04:09:23;;;;;;;27.50;13.40;;;8.00;99.90;;;;;;5029392;28;20183;-69
2021/10/18 04:11:49;;;;;;;23.27;13.47;;;7.90;99.90;;;;;;5031518;28;20179;-69
2021/10/18 04:14:14;;;;;;;22.63;12.73;;;7.90;99.90;;;;;;5033796;28;20183;-69
2021/10/18 04:16:40;;;;;;;24.37;14.03;;;8.10;99.90;;;;;;5031359;28;20257;-67
2021/10/18 04:19:06;;;;;;;29.17;14.10;;;8.10;99.90;;;;;;5031174;28;20218;-68
2021/10/18 04:21:32;;;;;;;24.17;14.40;;;8.20;99.90;;;;;;5032087;28;20196;-67
2021/10/18 04:23:57;;;;;;;30.55;15.70;;;8.10;99.90;;;;;;5031459;28;20830;-68
2021/10/18 04:26:23;;;;;;;23.70;13.30;;;8.10;99.90;;;;;;5031519;28;20431;-68
2021/10/18 04:28:49;;;;;;;27.13;14.30;;;8.20;99.90;;;;;;5040954;28;20191;-70
2021/10/18 04:31:14;;;;;;;22.80;13.50;;;8.30;99.90;;;;;;5029914;28;20190;-70
2021/10/18 04:33:40;;;;;;;23.70;14.07;;;8.20;99.90;;;;;;5026499;28;20434;-69
2021/10/18 04:36:05;;;;;;;25.27;12.93;;;8.20;99.90;;;;;;5029764;28;20212;-69
2021/10/18 04:38:31;;;;;;;24.50;13.23;;;8.30;99.90;;;;;;5030506;28;20266;-69
2021/10/18 04:40:57;;;;;;;26.90;13.10;;;8.30;99.90;;;;;;5030526;28;20180;-68
2021/10/18 04:43:22;;;;;;;20.37;12.33;;;8.50;99.90;;;;;;5031335;28;20189;-69
2021/10/18 04:45:48;;;;;;;21.70;13.00;;;8.30;99.90;;;;;;5034934;28;20246;-68
2021/10/18 04:48:13;;;;;;;20.90;11.97;;;8.20;99.90;;;;;;5032840;28;20638;-69
2021/10/18 04:50:39;;;;;;;18.93;10.87;;;8.40;99.90;;;;;;5030730;28;20184;-69
2021/10/18 04:53:05;;;;;;;22.93;12.33;;;8.10;99.90;;;;;;5030927;28;20187;-68
2021/10/18 04:55:30;;;;;;;21.00;11.97;;;8.30;99.90;;;;;;5031131;28;20183;-69
2021/10/18 04:58:01;;;;;;;22.90;12.60;;;8.40;99.90;;;;;;5028583;28;20587;-68
2021/10/18 05:00:35;;;;;;;22.33;13.18;;;8.40;99.90;;;;;;5032201;28;20725;-68
2021/10/18 05:03:04;;;;;;;27.08;14.68;;;8.10;99.90;;;;;;5032113;28;20193;-70
2021/10/18 05:05:31;;;;;;;23.20;13.60;;;8.20;99.90;;;;;;5030841;28;20235;-70
2021/10/18 05:08:03;;;;;;;26.27;12.90;;;8.40;99.90;;;;;;5029873;28;20191;-70
2021/10/18 05:10:30;;;;;;;20.80;11.55;;;8.30;99.90;;;;;;5036880;28;20772;-72
2021/10/18 05:12:56;;;;;;;16.75;11.88;;;8.40;99.90;;;;;;5034079;28;20286;-72
2021/10/18 05:15:21;;;;;;;20.13;13.10;;;8.20;99.90;;;;;;5037062;28;20699;-72
2021/10/18 05:17:47;;;;;;;23.47;13.80;;;8.30;99.90;;;;;;5032882;28;20233;-70
2021/10/18 05:20:12;;;;;;;22.43;13.27;;;8.20;99.90;;;;;;5031003;28;20187;-69
2021/10/18 05:22:38;;;;;;;20.20;13.30;;;8.10;99.90;;;;;;5030148;28;20659;-69
2021/10/18 05:25:04;;;;;;;22.50;12.60;;;8.10;99.90;;;;;;5029635;28;20587;-70
2021/10/18 05:27:30;;;;;;;21.50;13.00;;;8.10;99.90;;;;;;5029239;28;20183;-69
2021/10/18 05:29:55;;;;;;;21.97;13.23;;;8.30;99.90;;;;;;5029612;28;20445;-70
2021/10/18 05:32:21;;;;;;;22.23;14.30;;;8.20;99.90;;;;;;5030436;28;20191;-72
2021/10/18 05:34:46;;;;;;;21.23;12.27;;;8.40;99.90;;;;;;5029983;28;20195;-70
2021/10/18 05:37:12;;;;;;;19.77;13.20;;;8.30;99.90;;;;;;5032493;28;20222;-70
2021/10/18 05:39:37;;;;;;;22.67;13.60;;;8.30;99.90;;;;;;5034645;28;20224;-70
2021/10/18 05:42:03;;;;;;;25.20;14.63;;;8.20;99.90;;;;;;5033213;28;20191;-70
2021/10/18 05:44:29;;;;;;;19.33;13.03;;;8.50;99.90;;;;;;5032684;28;20183;-70
2021/10/18 05:46:54;;;;;;;20.00;12.47;;;8.20;99.90;;;;;;5034050;28;20191;-70
2021/10/18 05:49:20;;;;;;;22.97;14.33;;;8.50;99.90;;;;;;5030397;28;20675;-70
2021/10/18 05:51:45;;;;;;;21.20;13.60;;;8.40;99.90;;;;;;5029846;28;20240;-70
2021/10/18 05:54:11;;;;;;;24.07;12.97;;;8.20;99.90;;;;;;5037151;28;20187;-70
2021/10/18 05:56:36;;;;;;;23.20;14.50;;;8.60;99.90;;;;;;5029780;28;20214;-70
2021/10/18 05:59:02;;;;;;;22.10;12.97;;;8.60;99.90;;;;;;5029737;28;20175;-70
2021/10/18 06:01:27;;;;;;;20.90;13.03;;;8.50;99.90;;;;;;5030817;28;20203;-70
2021/10/18 06:03:53;;;;;;;21.60;12.77;;;8.50;99.90;;;;;;5029882;28;20194;-70
2021/10/18 06:06:19;;;;;;;19.33;11.63;;;8.60;99.90;;;;;;5032747;28;20234;-70
2021/10/18 06:08:44;;;;;;;16.47;12.20;;;8.60;99.90;;;;;;5029409;28;20254;-70
2021/10/18 06:11:10;;;;;;;17.20;11.73;;;8.60;99.90;;;;;;5029555;28;20260;-69
2021/10/18 06:13:36;;;;;;;18.55;13.00;;;8.80;99.90;;;;;;5029093;28;20269;-70
2021/10/18 06:16:02;;;;;;;17.20;12.60;;;8.60;99.90;;;;;;5029018;28;20218;-69
2021/10/18 06:18:27;;;;;;;24.33;12.60;;;8.70;99.90;;;;;;5030796;28;20549;-70
2021/10/18 06:20:55;;;;;;;22.00;13.50;;;8.80;99.90;;;;;;5029342;28;20434;-72
2021/10/18 06:23:23;;;;;;;20.08;11.77;;;8.50;99.90;;;;;;5029180;28;20179;-72
2021/10/18 06:25:49;;;;;;;20.90;12.85;;;8.60;99.90;;;;;;5031174;28;20716;-69
2021/10/18 06:28:15;;;;;;;18.10;13.38;;;8.60;99.90;;;;;;5029212;28;20241;-70
2021/10/18 06:30:41;;;;;;;22.73;13.20;;;8.70;99.90;;;;;;5027516;28;20191;-70
2021/10/18 06:33:07;;;;;;;26.30;15.43;;;8.70;99.90;;;;;;5015607;28;20207;-71
2021/10/18 06:35:34;;;;;;;25.37;15.67;;;9.10;99.90;;;;;;5023834;28;20240;-70
2021/10/18 06:38:00;;;;;;;20.55;14.27;;;8.70;99.90;;;;;;5027545;28;20932;-71
2021/10/18 06:40:26;;;;;;;21.83;13.93;;;9.00;99.90;;;;;;5033167;28;20202;-71
2021/10/18 06:42:52;;;;;;;26.23;16.20;;;9.30;99.90;;;;;;5032310;28;20453;-73
2021/10/18 06:45:18;;;;;;;26.93;16.13;;;9.20;99.90;;;;;;5031337;28;20203;-70
2021/10/18 06:47:43;;;;;;;21.67;14.40;;;9.00;99.90;;;;;;5032757;28;20445;-70
2021/10/18 06:50:10;;;;;;;23.43;15.37;;;9.20;99.90;;;;;;5032656;28;20197;-70
2021/10/18 06:52:41;;;;;;;24.45;15.68;;;9.40;99.90;;;;;;5032118;28;20461;-71
2021/10/18 06:55:08;;;;;;;19.80;13.88;;;9.30;99.90;;;;;;5029431;28;20202;-71
2021/10/18 06:57:34;;;;;;;20.00;13.90;;;9.40;99.90;;;;;;5029548;28;20219;-70
2021/10/18 07:00:00;;;;;;;20.63;13.43;;;9.50;99.90;;;;;;5032313;28;20197;-73
2021/10/18 07:02:26;;;;;;;19.90;12.23;;;9.50;99.90;;;;;;5031266;28;20659;-70
2021/10/18 07:04:52;;;;;;;22.40;13.23;;;9.40;99.90;;;;;;5033735;28;20223;-69
2021/10/18 07:07:21;;;;;;;19.25;12.45;;;9.40;99.90;;;;;;5032011;28;20431;-72
2021/10/18 07:09:47;;;;;;;20.42;12.60;;;9.50;99.90;;;;;;5029957;28;20404;-70
2021/10/18 07:12:13;;;;;;;18.73;12.60;;;9.60;99.90;;;;;;5032455;28;20203;-70
2021/10/18 07:14:38;;;;;;;20.23;12.77;;;9.80;99.90;;;;;;5031546;28;20577;-71
2021/10/18 07:17:04;;;;;;;17.87;12.83;;;9.70;99.90;;;;;;5032166;28;20281;-72
2021/10/18 07:19:29;;;;;;;23.53;13.83;;;9.70;99.90;;;;;;5032237;28;20183;-69
2021/10/18 07:21:55;;;;;;;20.13;13.10;;;9.80;99.90;;;;;;5032337;28;20553;-69
2021/10/18 07:24:21;;;;;;;22.20;13.82;;;9.70;99.90;;;;;;5032687;28;20595;-70
2021/10/18 07:26:49;;;;;;;26.03;15.90;;;9.60;99.90;;;;;;5032521;28;20237;-70
2021/10/18 07:29:16;;;;;;;19.88;13.32;;;9.80;99.90;;;;;;5032113;28;20444;-70
2021/10/18 07:31:42;;;;;;;20.25;14.20;;;9.90;99.90;;;;;;5032389;28;20187;-70
2021/10/18 07:34:13;;;;;;;24.17;13.55;;;9.90;99.90;;;;;;5031654;28;20265;-69
2021/10/18 07:36:47;;;;;;;26.33;15.88;;;9.80;99.90;;;;;;5032059;28;20595;-70
2021/10/18 07:39:15;;;;;;;27.33;16.38;;;9.90;99.90;;;;;;5031623;28;20281;-69
2021/10/18 07:41:40;;;;;;;27.90;15.98;;;9.90;99.90;;;;;;5031983;28;20314;-70
2021/10/18 07:44:06;;;;;;;21.37;13.57;;;10.10;99.90;;;;;;5031930;28;20267;-70
2021/10/18 07:46:32;;;;;;;24.50;15.20;;;10.10;99.90;;;;;;5032167;28;20638;-71
2021/10/18 07:48:57;;;;;;;22.50;13.50;;;9.90;99.90;;;;;;5032018;28;20195;-71
2021/10/18 07:51:23;;;;;;;19.00;12.63;;;10.10;99.90;;;;;;5023238;28;20252;-71
2021/10/18 07:53:48;;;;;;;21.63;14.27;;;10.00;99.90;;;;;;5032103;28;20438;-71
2021/10/18 07:56:14;;;;;;;21.03;13.60;;;10.10;99.90;;;;;;5031544;28;20309;-70
2021/10/18 07:58:39;;;;;;;21.03;13.17;;;10.10;99.90;;;;;;5032025;28;20558;-69
2021/10/18 08:01:05;;;;;;;23.40;14.60;;;10.10;99.90;;;;;;5031178;28;20229;-69
2021/10/18 08:03:30;;;;;;;20.70;14.10;;;10.10;99.90;;;;;;5031556;28;20674;-69
2021/10/18 08:05:57;;;;;;;19.90;13.33;;;10.10;99.90;;;;;;5031600;28;20265;-69
2021/10/18 08:08:28;;;;;;;25.48;13.88;;;10.00;99.90;;;;;;5030636;28;20275;-70
2021/10/18 08:10:54;;;;;;;20.00;13.25;;;10.30;99.90;;;;;;5031952;28;20282;-70
2021/10/18 08:13:19;;;;;;;20.57;13.30;;;10.30;99.90;;;;;;5030955;28;20270;-69
2021/10/18 08:15:45;;;;;;;21.00;13.13;;;10.30;99.90;;;;;;5031447;28;20248;-69
2021/10/18 08:18:10;;;;;;;18.77;12.73;;;10.20;99.90;;;;;;5030916;28;20195;-69
2021/10/18 08:20:37;;;;;;;18.70;12.23;;;10.30;99.90;;;;;;5031780;28;20176;-69
2021/10/18 08:23:03;;;;;;;21.38;13.93;;;10.40;99.90;;;;;;5031169;28;20270;-69
2021/10/18 08:25:28;;;;;;;20.60;14.40;;;10.30;99.90;;;;;;5031283;28;20302;-69
2021/10/18 08:27:54;;;;;;;20.60;13.50;;;10.60;99.90;;;;;;5031215;28;20181;-70
2021/10/18 08:30:20;;;;;;;20.50;14.90;;;10.60;99.90;;;;;;5030862;28;20221;-70
2021/10/18 08:32:46;;;;;;;19.90;13.93;;;10.50;99.90;;;;;;5030936;28;20188;-71
2021/10/18 08:35:12;;;;;;;17.40;12.40;;;10.30;99.90;;;;;;5030917;28;20183;-72
2021/10/18 08:40:26;;;;;;;17.73;12.50;;;10.40;99.90;;;;;;5030903;28;20205;-73
2021/10/18 08:45:17;;;;;;;21.33;13.40;;;10.50;99.90;;;;;;5030521;28;20647;-72
2021/10/18 08:47:44;;;;;;;21.57;14.37;;;10.60;99.90;;;;;;5030740;28;20557;-71
2021/10/18 08:50:10;;;;;;;20.92;14.02;;;10.60;99.90;;;;;;5031247;28;20685;-71
2021/10/18 08:52:35;;;;;;;21.00;13.00;;;11.10;99.90;;;;;;5030884;28;20183;-71
2021/10/18 08:55:01;;;;;;;18.93;12.50;;;10.80;99.90;;;;;;5030009;28;20713;-72
2021/10/18 08:57:27;;;;;;;21.37;15.23;;;10.80;99.90;;;;;;5030576;28;20252;-70
2021/10/18 08:59:52;;;;;;;19.80;13.93;;;10.90;99.90;;;;;;5030659;28;20461;-71
2021/10/18 09:02:33;;;;;;;19.17;12.60;;;11.00;99.90;;;;;;5030630;28;20760;-70
2021/10/18 09:04:58;;;;;;;22.63;13.63;;;11.20;99.90;;;;;;5023369;28;20230;-69
2021/10/18 09:07:24;;;;;;;21.07;14.33;;;11.10;99.90;;;;;;5029567;28;20191;-70
2021/10/18 09:09:51;;;;;;;16.20;13.63;;;11.00;99.90;;;;;;5030625;28;20262;-70
2021/10/18 09:12:31;;;;;;;20.30;14.23;;;11.10;99.90;;;;;;5030386;28;20196;-70
2021/10/18 09:15:21;;;;;;;18.42;12.65;;;11.20;99.90;;;;;;5022678;28;20218;-69
2021/10/18 09:17:53;;;;;;;20.05;13.27;;;11.00;99.90;;;;;;5021307;28;20223;-70
2021/10/18 09:20:32;;;;;;;21.23;14.68;;;11.30;99.90;;;;;;5030311;28;20208;-71
2021/10/18 09:23:25;;;;;;;23.77;14.65;;;11.10;99.90;;;;;;5029849;28;20587;-69
2021/10/18 09:25:52;;;;;;;19.42;14.40;;;11.50;99.90;;;;;;5029574;28;20856;-70
2021/10/18 09:28:23;;;;;;;17.63;12.00;;;11.50;99.90;;;;;;5030219;28;20890;-70
2021/10/18 09:30:49;;;;;;;16.58;12.15;;;11.60;99.90;;;;;;5030011;28;20194;-71
2021/10/18 09:33:29;;;;;;;15.30;11.93;;;11.50;99.90;;;;;;5029425;28;20181;-71
2021/10/18 09:35:56;;;;;;;16.80;12.35;;;11.50;99.90;;;;;;5029684;28;20184;-70
2021/10/18 09:38:24;;;;;;;19.55;13.23;;;11.60;99.90;;;;;;5029559;28;20203;-70
2021/10/18 09:40:52;;;;;;;17.52;13.52;;;11.60;99.90;;;;;;5029692;28;20195;-70
2021/10/18 09:43:56;;;;;;;18.35;13.07;;;11.70;99.90;;;;;;5030005;28;20227;-70
2021/10/18 09:46:23;;;;;;;18.63;13.68;;;11.60;99.90;;;;;;5028580;28;20229;-71
2021/10/18 10:56:24;;;;;;;14.07;11.53;;;17.30;81.60;;;;;;5029246;28;20489;-70
2021/10/18 10:58:59;;;;;;;14.87;12.40;;;18.40;80.70;;;;;;5022868;28;20460;-70
2021/10/18 11:01:45;;;;;;;14.90;11.93;;;19.00;73.30;;;;;;5028794;28;20455;-70
2021/10/18 11:04:29;;;;;;;14.47;11.83;;;20.00;67.40;;;;;;5030648;28;20748;-70
2021/10/18 11:06:55;;;;;;;10.70;9.70;;;20.50;64.60;;;;;;5023286;28;20914;-72
2021/10/18 11:09:40;;;;;;;12.87;10.80;;;21.00;62.80;;;;;;5028296;28;20874;-74
2021/10/18 11:12:10;;;;;;;17.20;12.23;;;21.50;60.40;;;;;;5027729;28;20496;-70
2021/10/18 11:14:36;;;;;;;12.50;10.93;;;22.90;58.90;;;;;;5028979;28;20443;-70
2021/10/18 11:17:02;;;;;;;11.73;10.50;;;24.60;53.90;;;;;;5029507;28;20840;-73
2021/10/18 11:19:28;;;;;;;12.70;11.40;;;26.50;49.90;;;;;;5029233;28;20213;-70
2021/10/18 11:21:59;;;;;;;13.10;11.70;;;28.10;44.20;;;;;;5028369;28;20805;-77
2021/10/18 11:24:38;;;;;;;14.90;11.77;;;29.70;39.10;;;;;;5030546;28;20188;-76
2021/10/18 11:27:03;;;;;;;10.70;9.63;;;31.20;36.30;;;;;;5031734;28;20453;-74
2021/10/18 11:29:31;;;;;;;13.17;11.90;;;32.40;32.90;;;;;;5032775;28;20449;-71
2021/10/18 11:32:08;;;;;;;12.90;11.70;;;33.40;29.80;;;;;;5038451;28;20680;-71
2021/10/18 11:34:34;;;;;;;13.20;11.90;;;34.00;28.50;;;;;;5032565;28;20456;-70
2021/10/18 11:37:00;;;;;;;11.00;9.93;;;34.60;28.10;;;;;;5031415;28;20477;-72
2021/10/18 11:39:27;;;;;;;12.17;11.07;;;35.20;27.10;;;;;;5032366;28;20434;-71
2021/10/18 11:41:59;;;;;;;11.73;10.60;;;35.50;25.80;;;;;;5032038;28;20572;-69
2021/10/18 11:44:47;;;;;;;11.47;10.47;;;35.90;26.00;;;;;;5033393;28;20472;-71
2021/10/18 11:47:32;;;;;;;11.50;10.40;;;35.80;24.90;;;;;;5025115;28;20450;-70
2021/10/18 11:50:24;;;;;;;9.63;8.80;;;35.80;25.80;;;;;;5032318;28;20447;-72
2021/10/18 11:53:00;;;;;;;10.60;9.70;;;36.50;25.90;;;;;;5029018;28;20465;-70
2021/10/18 11:55:36;;;;;;;10.80;9.80;;;37.00;24.20;;;;;;5031670;28;20965;-74
2021/10/18 11:58:05;;;;;;;9.60;8.73;;;37.10;23.10;;;;;;5031891;28;20491;-72
2021/10/18 12:00:42;;;;;;;8.23;7.43;;;37.50;23.70;;;;;;5025934;28;20846;-71
2021/10/18 12:03:16;;;;;;;8.77;7.97;;;37.70;23.00;;;;;;5031404;28;20463;-73
2021/10/18 12:05:44;;;;;;;8.53;7.83;;;37.60;22.10;;;;;;5031526;28;20488;-73
2021/10/18 12:08:12;;;;;;;10.10;9.10;;;37.60;22.40;;;;;;5030840;28;20426;-75
2021/10/18 12:10:39;;;;;;;8.80;8.00;;;37.60;22.60;;;;;;5025244;28;20515;-74
2021/10/18 12:13:05;;;;;;;8.30;7.50;;;37.70;22.50;;;;;;5030876;28;20477;-73
2021/10/18 12:15:33;;;;;;;9.20;8.40;;;37.90;22.50;;;;;;5031347;28;20477;-71
2021/10/18 12:17:59;;;;;;;8.67;7.97;;;38.30;22.20;;;;;;5031624;28;20175;-70
2021/10/18 12:20:25;;;;;;;9.37;8.67;;;38.30;21.20;;;;;;5030648;28;20796;-73
2021/10/18 12:23:05;;;;;;;7.83;7.20;;;38.10;21.30;;;;;;5031212;28;20434;-74
2021/10/18 12:25:36;;;;;;;9.13;8.40;;;38.20;22.20;;;;;;5031508;28;20222;-73
2021/10/18 12:28:37;;;;;;;9.13;8.30;;;38.60;21.90;;;;;;5031275;28;20536;-73
2021/10/18 12:31:02;;;;;;;7.47;6.87;;;38.60;21.10;;;;;;5026631;28;20841;-73
2021/10/18 12:33:37;;;;;;;7.80;7.17;;;38.50;21.30;;;;;;5030590;28;20474;-70
2021/10/18 12:36:03;;;;;;;8.30;7.60;;;38.50;21.30;;;;;;5024171;28;20198;-70
2021/10/18 12:38:30;;;;;;;8.73;7.90;;;38.50;20.60;;;;;;5030782;28;20464;-71
2021/10/18 12:41:25;;;;;;;9.23;8.40;;;38.50;20.60;;;;;;5031047;28;20550;-71
2021/10/18 12:43:51;;;;;;;7.50;6.80;;;38.40;21.30;;;;;;5030945;28;20465;-71
2021/10/18 12:46:21;;;;;;;7.50;6.90;;;38.40;21.60;;;;;;5031186;28;20840;-71
2021/10/18 12:49:06;;;;;;;7.70;7.00;;;38.20;21.60;;;;;;5030622;28;20442;-71
2021/10/18 12:51:46;;;;;;;8.00;7.40;;;37.90;21.50;;;;;;5031643;28;20535;-71
2021/10/18 12:54:28;;;;;;;8.30;7.60;;;37.80;22.00;;;;;;5031119;28;20975;-70
2021/10/18 12:57:06;;;;;;;7.43;6.83;;;38.00;22.50;;;;;;5033764;28;20443;-71
2021/10/18 12:59:35;;;;;;;7.53;6.93;;;38.30;21.70;;;;;;5031156;28;20461;-72
2021/10/18 13:02:24;;;;;;;7.30;6.70;;;38.30;21.50;;;;;;5030578;28;20600;-71
2021/10/18 13:05:05;;;;;;;8.00;7.40;;;37.80;21.30;;;;;;5031069;28;20833;-70
2021/10/18 13:07:31;;;;;;;7.40;6.77;;;37.20;21.60;;;;;;5033187;28;20492;-70
2021/10/18 13:09:57;;;;;;;8.50;7.80;;;36.00;22.30;;;;;;5030467;28;20481;-70
2021/10/18 13:12:26;;;;;;;7.20;6.50;;;35.00;23.20;;;;;;5031393;28;20461;-70
2021/10/18 13:14:52;;;;;;;7.23;6.60;;;34.20;24.70;;;;;;5030108;28;20548;-70
2021/10/18 13:17:18;;;;;;;8.10;7.40;;;33.80;25.60;;;;;;5030037;28;20464;-70
2021/10/18 13:19:43;;;;;;;7.70;7.00;;;33.50;25.80;;;;;;5029285;28;20973;-71
2021/10/18 13:22:09;;;;;;;7.33;6.73;;;33.10;25.80;;;;;;5030038;28;20179;-70
2021/10/18 13:24:34;;;;;;;8.10;7.30;;;32.50;26.10;;;;;;5028958;28;20210;-70
2021/10/18 13:27:01;;;;;;;7.30;6.70;;;31.90;26.60;;;;;;5025810;28;20229;-70
2021/10/18 13:29:27;;;;;;;7.50;6.90;;;31.20;27.50;;;;;;5019529;28;20419;-70
2021/10/18 13:31:52;;;;;;;6.40;5.90;;;30.50;28.40;;;;;;5029982;28;20435;-70
2021/10/18 13:34:18;;;;;;;7.80;7.10;;;29.80;29.50;;;;;;5029296;28;20196;-70
2021/10/18 13:36:43;;;;;;;7.97;7.17;;;29.20;30.10;;;;;;5022906;28;20289;-74
2021/10/18 13:39:09;;;;;;;7.40;6.80;;;28.70;30.80;;;;;;5030012;28;20172;-73
2021/10/18 13:41:34;;;;;;;12.23;11.03;;;28.10;31.70;;;;;;5030413;28;20179;-74
2021/10/18 13:44:01;;;;;;;11.87;10.73;;;27.60;33.00;;;;;;5027995;28;20252;-75
2021/10/18 13:46:27;;;;;;;10.63;9.60;;;27.30;34.20;;;;;;5029871;28;20246;-74
2021/10/18 13:48:53;;;;;;;10.87;9.73;;;27.30;35.10;;;;;;5028532;28;20457;-71
2021/10/18 13:51:19;;;;;;;10.77;9.83;;;27.40;35.30;;;;;;5028795;28;20448;-74